Time;durP1;ratioP1;P1;durP2;ratioP2;P2;SDS_P1;SDS_P2;PMS_P1;PMS_P2;Temp;Humidity;BMP_temperature;BMP_pressure;BME280_temperature;BME280_humidity;BME280_pressure;Samples;Min_cycle;Max_cycle;Signal;HPM_P1;HPM_P2
2023/01/30 00:00:00;;;;;;;17.83;8.27;;;-0.80;99.90;;;;;;4161222;28;20523;-76
2023/01/30 00:02:04;;;;;;;21.13;8.70;;;-0.80;99.90;;;;;;4159873;28;20455;-77
2023/01/30 00:04:06;;;;;;;17.67;8.00;;;-0.90;99.90;;;;;;4159435;28;20490;-76
2023/01/30 00:06:08;;;;;;;18.73;8.20;;;-0.90;99.90;;;;;;4158848;28;20482;-76
2023/01/30 00:08:10;;;;;;;20.43;8.17;;;-0.90;99.90;;;;;;4156755;28;20485;-77
2023/01/30 00:10:12;;;;;;;18.63;8.33;;;-1.00;99.90;;;;;;4164045;28;20455;-76
2023/01/30 00:12:13;;;;;;;19.03;8.63;;;-1.00;99.90;;;;;;4150593;28;20588;-76
2023/01/30 00:14:16;;;;;;;18.00;7.33;;;-1.00;99.90;;;;;;4152441;28;20493;-76
2023/01/30 00:16:18;;;;;;;16.40;7.73;;;-1.00;99.90;;;;;;4155862;28;20466;-77
2023/01/30 00:18:21;;;;;;;17.87;7.73;;;-0.90;99.90;;;;;;4157165;28;20455;-76
2023/01/30 00:20:23;;;;;;;19.23;8.03;;;-1.00;99.90;;;;;;4153665;28;20899;-78
2023/01/30 00:22:25;;;;;;;17.67;7.80;;;-1.00;99.90;;;;;;4156834;28;20526;-77
2023/01/30 00:24:27;;;;;;;18.07;8.37;;;-0.90;99.90;;;;;;4157317;28;20556;-78
2023/01/30 00:26:29;;;;;;;16.10;7.83;;;-1.00;99.90;;;;;;4158762;28;20513;-77
2023/01/30 00:28:31;;;;;;;16.70;7.47;;;-0.90;99.90;;;;;;4153055;28;20458;-77
2023/01/30 00:30:33;;;;;;;17.77;7.90;;;-0.90;99.90;;;;;;4152170;28;20551;-79
2023/01/30 00:32:35;;;;;;;18.93;8.60;;;-1.00;99.90;;;;;;4153736;28;20559;-77
2023/01/30 00:34:38;;;;;;;16.97;7.63;;;-0.90;99.90;;;;;;4156334;28;20835;-76
2023/01/30 00:36:40;;;;;;;18.60;7.70;;;-0.90;99.90;;;;;;4158467;28;20513;-77
2023/01/30 00:38:42;;;;;;;15.67;8.00;;;-0.90;99.90;;;;;;4159742;28;20471;-77
2023/01/30 00:40:44;;;;;;;17.00;8.20;;;-0.90;99.90;;;;;;4154150;28;20486;-77
2023/01/30 00:47:26;;;;;;;18.43;8.63;;;-0.90;99.90;;;;;;4154968;28;20973;-77
2023/01/30 00:49:28;;;;;;;19.77;8.63;;;-0.90;99.90;;;;;;4156995;28;20552;-77
2023/01/30 00:51:31;;;;;;;18.73;8.67;;;-0.90;99.90;;;;;;4156567;28;20485;-78
2023/01/30 00:53:33;;;;;;;18.03;7.93;;;-0.90;99.90;;;;;;4154192;28;20451;-77
2023/01/30 00:55:35;;;;;;;20.43;8.10;;;0.10;99.90;;;;;;4156695;28;20505;-76
2023/01/30 00:57:37;;;;;;;19.57;8.13;;;-1.00;99.90;;;;;;4156479;28;20913;-76
2023/01/30 00:59:41;;;;;;;15.83;7.93;;;-1.00;99.90;;;;;;4151881;28;21122;-77
2023/01/30 01:01:43;;;;;;;22.57;8.30;;;-1.00;99.90;;;;;;4154281;28;20990;-76
2023/01/30 01:03:45;;;;;;;19.13;8.63;;;-1.00;99.90;;;;;;4156188;28;20578;-76
2023/01/30 01:05:47;;;;;;;19.13;8.23;;;-1.00;99.90;;;;;;4156413;28;20508;-77
2023/01/30 01:07:50;;;;;;;20.53;9.10;;;-1.00;99.90;;;;;;4155064;28;20464;-77
2023/01/30 01:09:52;;;;;;;18.53;8.30;;;-1.10;99.90;;;;;;4155654;28;20979;-77
2023/01/30 01:11:54;;;;;;;18.30;8.70;;;-1.00;99.90;;;;;;4156202;28;20576;-76
2023/01/30 01:13:57;;;;;;;19.83;9.27;;;-1.10;99.90;;;;;;4155362;28;21432;-78
2023/01/30 01:15:59;;;;;;;17.70;8.17;;;-1.00;99.90;;;;;;4153021;28;20454;-78
2023/01/30 01:18:01;;;;;;;19.77;8.87;;;-1.00;99.90;;;;;;4155854;28;20562;-77
2023/01/30 01:20:03;;;;;;;17.20;8.03;;;-1.00;99.90;;;;;;4157344;28;20463;-76
2023/01/30 01:22:05;;;;;;;19.53;8.57;;;-1.00;99.90;;;;;;4156738;28;20451;-76
2023/01/30 01:24:12;;;;;;;18.90;8.93;;;-1.00;99.90;;;;;;4152191;28;20461;-77
2023/01/30 01:26:14;;;;;;;17.63;8.07;;;-1.00;99.90;;;;;;4150538;28;20498;-77
2023/01/30 01:28:20;;;;;;;18.07;8.33;;;-0.90;99.90;;;;;;4156315;28;20549;-77
2023/01/30 01:30:22;;;;;;;21.07;8.87;;;-0.90;99.90;;;;;;4151366;28;20443;-77
2023/01/30 01:32:24;;;;;;;19.47;8.83;;;-0.90;99.90;;;;;;4155519;28;20896;-77
2023/01/30 01:34:26;;;;;;;18.17;8.40;;;-0.80;99.90;;;;;;4158686;28;20466;-77
2023/01/30 01:36:28;;;;;;;19.77;8.23;;;-0.80;99.90;;;;;;4156691;28;20587;-77
2023/01/30 01:38:30;;;;;;;17.57;8.57;;;-0.70;99.90;;;;;;4159433;28;20556;-77
2023/01/30 01:42:52;;;;;;;20.03;8.93;;;-0.70;99.90;;;;;;4154122;28;20959;-76
2023/01/30 01:45:03;;;;;;;22.23;9.20;;;-0.60;99.90;;;;;;4152891;28;20458;-77
2023/01/30 01:47:05;;;;;;;19.10;8.60;;;-0.70;99.90;;;;;;4160983;28;20498;-77
2023/01/30 01:49:15;;;;;;;16.37;7.90;;;-0.60;99.90;;;;;;4161061;28;21036;-77
2023/01/30 01:51:20;;;;;;;16.43;7.83;;;-0.60;99.90;;;;;;4154736;28;20545;-77
2023/01/30 01:53:26;;;;;;;18.80;8.43;;;-0.60;99.90;;;;;;4156844;28;20519;-78
2023/01/30 01:55:28;;;;;;;19.20;8.27;;;-0.50;99.90;;;;;;4163032;28;20461;-79
2023/01/30 01:57:34;;;;;;;18.60;8.07;;;-0.50;99.90;;;;;;4160913;28;20482;-76
2023/01/30 01:59:41;;;;;;;16.40;8.00;;;-0.50;99.90;;;;;;4154927;28;20466;-76
2023/01/30 02:01:43;;;;;;;14.17;7.37;;;-0.40;99.90;;;;;;4152593;28;21008;-76
2023/01/30 02:03:49;;;;;;;18.03;8.27;;;-0.40;99.90;;;;;;4155226;28;20464;-76
2023/01/30 02:05:56;;;;;;;18.33;8.80;;;-0.40;99.90;;;;;;4154681;28;21246;-76
2023/01/30 02:08:03;;;;;;;17.90;8.50;;;-0.30;99.90;;;;;;4158124;28;20518;-77
2023/01/30 02:10:06;;;;;;;18.50;8.30;;;-0.30;99.90;;;;;;4158437;28;20463;-78
2023/01/30 02:12:11;;;;;;;18.80;8.63;;;-0.30;99.90;;;;;;4159455;28;20562;-77
2023/01/30 02:14:15;;;;;;;18.53;8.43;;;-0.20;99.90;;;;;;4154030;28;20563;-77
2023/01/30 02:16:18;;;;;;;14.60;7.13;;;-0.20;99.90;;;;;;4150697;28;20466;-77
2023/01/30 02:18:20;;;;;;;14.30;7.70;;;-0.20;99.90;;;;;;4150148;28;20546;-76
2023/01/30 02:20:30;;;;;;;16.03;7.93;;;-0.20;99.90;;;;;;4152965;28;20947;-77
2023/01/30 02:22:47;;;;;;;18.87;8.30;;;-0.20;99.90;;;;;;4154585;28;20543;-77
2023/01/30 02:25:21;;;;;;;19.33;8.87;;;0.20;99.90;;;;;;4157271;28;20501;-77
2023/01/30 02:27:53;;;;;;;15.90;8.03;;;-0.10;99.90;;;;;;4150899;28;20564;-77
2023/01/30 02:30:50;;;;;;;17.77;8.00;;;-0.10;99.90;;;;;;4153866;28;20545;-78
2023/01/30 02:33:03;;;;;;;15.67;8.03;;;-0.10;99.90;;;;;;4114490;28;21133;-77
2023/01/30 02:35:17;;;;;;;19.37;8.37;;;-0.10;99.90;;;;;;4118246;28;20887;-76
2023/01/30 02:37:31;;;;;;;18.67;8.67;;;-0.10;99.90;;;;;;4128160;28;20498;-76
2023/01/30 02:39:48;;;;;;;14.00;7.60;;;-0.10;99.90;;;;;;4155829;28;20576;-77
2023/01/30 02:42:01;;;;;;;17.07;8.10;;;-0.10;99.90;;;;;;4155623;28;20481;-78
2023/01/30 02:44:06;;;;;;;15.97;8.03;;;-0.10;99.90;;;;;;4151533;28;20469;-76
2023/01/30 02:46:15;;;;;;;17.33;7.83;;;-0.10;99.90;;;;;;4150119;28;20481;-77
2023/01/30 02:48:22;;;;;;;15.00;7.43;;;0.00;99.90;;;;;;4151675;28;20558;-76
2023/01/30 02:50:27;;;;;;;14.97;7.30;;;0.00;99.90;;;;;;4149547;28;20501;-77
2023/01/30 02:52:30;;;;;;;17.30;8.33;;;0.00;99.90;;;;;;4151001;28;20854;-77
2023/01/30 02:54:32;;;;;;;15.50;7.17;;;0.10;99.90;;;;;;4151003;28;20985;-78
2023/01/30 02:56:48;;;;;;;14.07;7.40;;;0.10;99.90;;;;;;4146594;28;20879;-77
2023/01/30 02:58:55;;;;;;;15.43;6.87;;;0.10;99.90;;;;;;4154919;28;20875;-77
2023/01/30 03:01:24;;;;;;;14.50;6.97;;;0.10;99.90;;;;;;4155078;28;20474;-76
2023/01/30 03:03:50;;;;;;;15.60;7.70;;;0.10;99.90;;;;;;4154970;28;20477;-77
2023/01/30 03:06:33;;;;;;;15.27;7.77;;;0.20;99.90;;;;;;4153111;28;20548;-77
2023/01/30 03:08:48;;;;;;;17.80;7.20;;;0.20;99.90;;;;;;4154352;28;20563;-77
2023/01/30 03:10:58;;;;;;;15.17;7.40;;;0.20;99.90;;;;;;4154126;28;20558;-77
2023/01/30 03:13:05;;;;;;;13.47;6.70;;;0.20;99.90;;;;;;4155829;28;20530;-76
2023/01/30 03:15:13;;;;;;;15.23;7.23;;;0.20;99.90;;;;;;4154553;28;20552;-78
2023/01/30 03:17:21;;;;;;;13.90;7.13;;;0.20;99.90;;;;;;4150712;28;20471;-79
2023/01/30 03:19:23;;;;;;;15.63;7.37;;;0.20;99.90;;;;;;4158009;28;20956;-78
2023/01/30 03:21:24;;;;;;;14.83;7.03;;;0.20;99.90;;;;;;4158851;28;20459;-76
2023/01/30 03:23:26;;;;;;;14.03;7.10;;;0.30;99.90;;;;;;4153948;28;20548;-77
2023/01/30 03:25:28;;;;;;;14.80;7.43;;;0.30;99.90;;;;;;4154744;28;20859;-76
2023/01/30 03:27:30;;;;;;;15.97;6.60;;;0.20;99.90;;;;;;4158988;28;20565;-77
2023/01/30 03:29:33;;;;;;;14.43;6.73;;;0.40;99.90;;;;;;4154123;28;20517;-76
2023/01/30 03:31:35;;;;;;;14.03;7.40;;;0.50;99.90;;;;;;4153017;28;20966;-77
2023/01/30 03:33:38;;;;;;;15.03;7.40;;;0.50;99.90;;;;;;4157285;28;20491;-76
2023/01/30 03:35:42;;;;;;;14.23;6.37;;;0.40;99.90;;;;;;4159072;28;20544;-77
2023/01/30 03:37:44;;;;;;;14.20;6.77;;;0.50;99.90;;;;;;4158341;28;20810;-77
2023/01/30 03:39:46;;;;;;;16.97;6.70;;;0.50;99.90;;;;;;4161104;28;20460;-77
2023/01/30 03:41:47;;;;;;;15.53;7.17;;;0.50;99.90;;;;;;4154935;28;20501;-77
2023/01/30 03:43:49;;;;;;;14.80;6.60;;;0.60;99.90;;;;;;4155890;28;20508;-79
2023/01/30 03:45:51;;;;;;;13.83;7.00;;;0.60;99.90;;;;;;4158424;28;20527;-77
2023/01/30 03:47:53;;;;;;;15.90;6.73;;;0.60;99.90;;;;;;4159333;28;20468;-79
2023/01/30 03:49:56;;;;;;;17.50;7.60;;;0.60;99.90;;;;;;4155855;28;20556;-77
2023/01/30 03:51:59;;;;;;;16.73;7.20;;;0.60;99.90;;;;;;4155891;28;20488;-77
2023/01/30 03:54:01;;;;;;;14.80;7.17;;;0.70;99.90;;;;;;4153657;28;20524;-77
2023/01/30 03:56:02;;;;;;;14.97;7.20;;;0.80;99.90;;;;;;4154461;28;21004;-76
2023/01/30 03:58:05;;;;;;;17.17;7.43;;;0.70;99.90;;;;;;4151668;28;20493;-77
2023/01/30 04:00:08;;;;;;;14.30;6.60;;;0.80;99.90;;;;;;4161439;28;20461;-76
2023/01/30 04:02:10;;;;;;;16.70;7.57;;;0.80;99.90;;;;;;4160683;28;20472;-76
2023/01/30 04:04:12;;;;;;;15.20;6.83;;;0.80;99.90;;;;;;4153667;28;21053;-77
2023/01/30 04:06:15;;;;;;;16.17;7.33;;;0.90;99.90;;;;;;4160169;28;20449;-76
2023/01/30 04:08:17;;;;;;;17.27;8.03;;;1.00;99.90;;;;;;4157900;28;20551;-76
2023/01/30 04:10:19;;;;;;;15.87;6.70;;;1.00;99.90;;;;;;4156245;28;20466;-77
2023/01/30 04:12:21;;;;;;;17.63;8.03;;;1.00;99.90;;;;;;4164820;28;20449;-76
2023/01/30 04:14:23;;;;;;;16.13;7.37;;;1.00;99.90;;;;;;4157992;28;20560;-77
2023/01/30 04:16:28;;;;;;;15.00;6.87;;;1.00;99.90;;;;;;4157969;28;20507;-76
2023/01/30 04:18:30;;;;;;;17.90;7.23;;;1.10;99.90;;;;;;4158241;28;20495;-76
2023/01/30 04:20:32;;;;;;;18.83;7.90;;;1.10;99.90;;;;;;4160855;28;20970;-77
2023/01/30 04:22:36;;;;;;;15.77;7.23;;;1.20;99.90;;;;;;4157884;28;20831;-76
2023/01/30 04:24:38;;;;;;;14.60;6.87;;;1.10;99.90;;;;;;4152329;28;20450;-76
2023/01/30 04:26:40;;;;;;;21.37;8.50;;;1.10;99.90;;;;;;4161597;28;20473;-77
2023/01/30 04:28:43;;;;;;;16.47;7.43;;;1.20;99.90;;;;;;4161759;28;20506;-76
2023/01/30 04:30:45;;;;;;;16.97;7.67;;;1.20;99.90;;;;;;4155991;28;20485;-76
2023/01/30 04:32:47;;;;;;;18.47;6.90;;;1.20;99.90;;;;;;4154796;28;20457;-77
2023/01/30 04:34:49;;;;;;;15.63;7.20;;;1.20;99.90;;;;;;4151417;28;20960;-76
2023/01/30 04:36:51;;;;;;;14.53;6.90;;;1.30;99.90;;;;;;4154506;28;20473;-76
2023/01/30 04:38:55;;;;;;;17.53;7.53;;;1.30;99.90;;;;;;4158551;28;20492;-76
2023/01/30 04:40:58;;;;;;;17.03;7.67;;;1.30;99.90;;;;;;4164409;28;20488;-76
2023/01/30 04:43:00;;;;;;;15.73;7.60;;;1.40;99.90;;;;;;4155363;28;20497;-77
2023/01/30 04:45:02;;;;;;;16.67;7.53;;;1.40;99.90;;;;;;4154661;28;20565;-77
2023/01/30 04:47:07;;;;;;;21.63;8.60;;;1.40;99.90;;;;;;4155394;28;20480;-78
2023/01/30 04:49:09;;;;;;;16.93;7.90;;;1.50;99.90;;;;;;4156592;28;20549;-79
2023/01/30 04:51:12;;;;;;;18.37;8.13;;;1.70;99.90;;;;;;4155117;28;20462;-79
2023/01/30 04:53:14;;;;;;;19.70;7.50;;;1.50;99.90;;;;;;4159518;28;20484;-77
2023/01/30 04:55:17;;;;;;;19.30;7.87;;;1.60;99.90;;;;;;4153569;28;20985;-77
2023/01/30 04:57:22;;;;;;;16.53;7.73;;;1.70;99.90;;;;;;4152018;28;20477;-77
2023/01/30 04:59:24;;;;;;;18.37;8.03;;;1.70;99.90;;;;;;4151539;28;21206;-79
2023/01/30 05:01:31;;;;;;;16.40;7.80;;;1.70;99.90;;;;;;4154384;28;20464;-78
2023/01/30 05:03:33;;;;;;;17.73;7.57;;;1.70;99.90;;;;;;4155113;28;20838;-78
2023/01/30 05:05:38;;;;;;;17.70;8.07;;;1.70;99.90;;;;;;4155720;28;20499;-78
2023/01/30 05:07:40;;;;;;;19.37;8.27;;;1.70;99.90;;;;;;4148582;28;20482;-78
2023/01/30 05:09:42;;;;;;;20.20;7.33;;;1.80;99.90;;;;;;4152777;28;20469;-79
2023/01/30 05:11:45;;;;;;;17.63;7.83;;;1.90;99.90;;;;;;4156318;28;20554;-79
2023/01/30 05:13:47;;;;;;;19.83;8.73;;;1.90;99.90;;;;;;4156099;28;20494;-78
2023/01/30 05:15:49;;;;;;;17.87;7.60;;;1.90;99.90;;;;;;4154882;28;20461;-78
2023/01/30 05:17:51;;;;;;;17.03;7.33;;;2.00;99.90;;;;;;4152560;28;20568;-78
2023/01/30 05:19:53;;;;;;;17.50;7.90;;;2.10;99.90;;;;;;4168433;28;20860;-77
2023/01/30 05:21:55;;;;;;;17.60;7.60;;;2.00;99.90;;;;;;4154553;28;20449;-78
2023/01/30 05:23:57;;;;;;;17.47;7.70;;;2.10;99.90;;;;;;4164641;28;20997;-78
2023/01/30 05:25:59;;;;;;;16.77;7.30;;;2.10;99.90;;;;;;4153694;28;20442;-77
2023/01/30 05:28:03;;;;;;;17.67;8.43;;;2.10;99.90;;;;;;4156975;28;20557;-76
2023/01/30 05:30:08;;;;;;;14.27;7.07;;;2.10;99.90;;;;;;4152252;28;20499;-78
2023/01/30 05:32:20;;;;;;;14.70;7.23;;;1.80;99.90;;;;;;4169020;28;20503;-78
2023/01/30 05:34:40;;;;;;;17.57;7.30;;;2.10;99.90;;;;;;4153172;28;20488;-77
2023/01/30 05:36:46;;;;;;;16.13;7.07;;;2.10;99.90;;;;;;4154914;28;20484;-78
2023/01/30 05:38:48;;;;;;;13.93;6.83;;;2.20;99.90;;;;;;4158346;28;20519;-78
2023/01/30 05:40:58;;;;;;;14.83;6.90;;;2.20;99.90;;;;;;4155384;28;20454;-78
2023/01/30 05:43:02;;;;;;;16.73;7.40;;;2.20;99.90;;;;;;4153346;28;20560;-78
2023/01/30 05:45:04;;;;;;;18.03;8.40;;;2.30;99.90;;;;;;4151682;28;20451;-78
2023/01/30 05:47:06;;;;;;;17.50;7.60;;;2.20;99.90;;;;;;4151913;28;20473;-79
2023/01/30 05:49:08;;;;;;;15.53;7.80;;;2.30;99.90;;;;;;4153370;28;20489;-77
2023/01/30 05:51:16;;;;;;;14.30;6.70;;;2.20;99.90;;;;;;4156244;28;20461;-77
2023/01/30 05:53:18;;;;;;;14.20;7.47;;;2.30;99.90;;;;;;4151486;28;20508;-77
2023/01/30 05:55:20;;;;;;;16.57;7.03;;;2.30;99.90;;;;;;4169994;28;20461;-76
2023/01/30 05:57:22;;;;;;;15.20;6.70;;;2.30;99.90;;;;;;4158389;28;20473;-77
2023/01/30 05:59:25;;;;;;;18.30;8.33;;;2.30;99.90;;;;;;4156656;28;20453;-78
2023/01/30 06:01:29;;;;;;;16.67;7.70;;;2.30;99.90;;;;;;4160350;28;20505;-78
2023/01/30 06:03:31;;;;;;;17.30;7.53;;;2.30;99.90;;;;;;4159408;28;20503;-78
2023/01/30 06:05:33;;;;;;;17.47;7.40;;;2.40;99.90;;;;;;4153736;28;20470;-78
2023/01/30 06:07:35;;;;;;;18.40;8.47;;;2.30;99.90;;;;;;4153050;28;20544;-77
2023/01/30 06:09:37;;;;;;;13.60;7.10;;;2.30;99.90;;;;;;4153976;28;20512;-78
2023/01/30 06:11:39;;;;;;;15.07;7.20;;;2.40;99.90;;;;;;4155750;28;20501;-78
2023/01/30 06:13:41;;;;;;;23.67;9.87;;;2.30;99.90;;;;;;4152742;28;20513;-77
2023/01/30 06:15:45;;;;;;;16.57;7.80;;;2.30;99.90;;;;;;4153248;28;21013;-78
2023/01/30 06:17:47;;;;;;;15.40;7.60;;;2.30;99.90;;;;;;4153619;28;20490;-78
2023/01/30 06:19:49;;;;;;;14.00;6.93;;;2.30;99.90;;;;;;4161240;28;20485;-76
2023/01/30 06:21:51;;;;;;;15.00;7.43;;;2.40;99.90;;;;;;4153976;28;21084;-78
2023/01/30 06:23:52;;;;;;;17.57;7.70;;;2.40;99.90;;;;;;4154208;28;20450;-77
2023/01/30 06:25:55;;;;;;;16.23;7.33;;;2.40;99.90;;;;;;4156026;28;20469;-77
2023/01/30 06:27:57;;;;;;;16.20;7.37;;;2.40;99.90;;;;;;4169751;28;21108;-77
2023/01/30 06:29:59;;;;;;;17.30;8.00;;;2.50;99.90;;;;;;4154636;28;20542;-77
2023/01/30 06:32:02;;;;;;;14.90;6.83;;;2.40;99.90;;;;;;4169974;28;20565;-77
2023/01/30 06:34:06;;;;;;;15.83;7.47;;;2.40;99.90;;;;;;4157152;28;20504;-78
2023/01/30 06:36:09;;;;;;;14.13;6.83;;;2.40;99.90;;;;;;4156398;28;20516;-78
2023/01/30 06:38:13;;;;;;;15.37;7.53;;;2.40;99.90;;;;;;4157319;28;20454;-76
2023/01/30 06:40:15;;;;;;;24.47;8.40;;;2.40;99.90;;;;;;4155314;28;20451;-78
2023/01/30 06:42:17;;;;;;;16.40;7.37;;;2.50;99.90;;;;;;4168173;28;21563;-78
2023/01/30 06:44:19;;;;;;;17.93;7.17;;;2.50;99.90;;;;;;4154201;28;20455;-76
2023/01/30 06:46:21;;;;;;;18.30;7.30;;;2.50;99.90;;;;;;4152989;28;20563;-77
2023/01/30 06:48:24;;;;;;;17.60;7.17;;;2.50;99.90;;;;;;4152275;28;21189;-76
2023/01/30 06:50:28;;;;;;;12.97;6.80;;;2.40;99.90;;;;;;4155343;28;20447;-78
2023/01/30 06:52:33;;;;;;;12.03;6.17;;;2.60;99.90;;;;;;4150314;28;20462;-78
2023/01/30 06:54:35;;;;;;;17.47;7.80;;;2.40;99.90;;;;;;4161378;28;20644;-77
2023/01/30 06:56:37;;;;;;;16.30;7.40;;;2.40;99.90;;;;;;4152933;28;20474;-78
2023/01/30 06:58:39;;;;;;;15.77;7.13;;;2.40;99.90;;;;;;4154905;28;20458;-78
2023/01/30 07:00:42;;;;;;;13.47;6.70;;;3.20;99.90;;;;;;4152695;28;20461;-78
2023/01/30 07:02:44;;;;;;;14.90;6.53;;;2.50;99.90;;;;;;4154285;28;20485;-78
2023/01/30 07:04:48;;;;;;;14.77;6.77;;;2.50;99.90;;;;;;4163582;28;20923;-79
2023/01/30 07:06:50;;;;;;;12.83;6.10;;;2.50;99.90;;;;;;4157998;28;20473;-78
2023/01/30 07:08:52;;;;;;;11.63;5.90;;;2.50;99.90;;;;;;4159333;28;20491;-78
2023/01/30 07:10:55;;;;;;;13.63;6.00;;;2.60;99.90;;;;;;4165257;28;20461;-77
2023/01/30 07:12:57;;;;;;;13.83;6.20;;;2.60;99.90;;;;;;4169310;28;20536;-77
2023/01/30 07:14:58;;;;;;;12.37;6.17;;;2.60;99.90;;;;;;4157545;28;20485;-77
2023/01/30 07:17:00;;;;;;;13.80;6.50;;;2.60;99.90;;;;;;4152573;28;20573;-76
2023/01/30 07:19:02;;;;;;;10.70;5.97;;;2.60;99.90;;;;;;4154921;28;20457;-77
2023/01/30 07:21:06;;;;;;;14.20;6.13;;;2.60;99.90;;;;;;4159471;28;21810;-77
2023/01/30 07:23:08;;;;;;;13.33;5.90;;;2.60;99.90;;;;;;4156394;28;20485;-79
2023/01/30 07:25:10;;;;;;;13.23;6.00;;;2.60;99.90;;;;;;4155784;28;20497;-78
2023/01/30 07:27:13;;;;;;;13.00;6.37;;;2.80;99.90;;;;;;4159867;28;20477;-78
2023/01/30 07:29:15;;;;;;;11.37;5.90;;;2.60;99.90;;;;;;4158011;28;20457;-79
2023/01/30 07:31:17;;;;;;;12.40;6.07;;;2.60;99.90;;;;;;4159866;28;20461;-78
2023/01/30 07:33:19;;;;;;;13.20;6.37;;;2.50;99.90;;;;;;4157920;28;20461;-78
2023/01/30 07:35:22;;;;;;;10.87;5.50;;;2.60;99.90;;;;;;4163529;28;21092;-79
2023/01/30 07:37:26;;;;;;;11.53;5.27;;;2.60;99.90;;;;;;4154211;28;21362;-78
2023/01/30 07:39:27;;;;;;;10.33;5.57;;;3.30;99.90;;;;;;4160642;28;21327;-77
2023/01/30 07:41:30;;;;;;;11.50;5.40;;;2.70;99.90;;;;;;4171035;28;20516;-77
2023/01/30 07:43:32;;;;;;;12.90;5.63;;;2.70;99.90;;;;;;4158974;28;21143;-78
2023/01/30 07:45:37;;;;;;;13.00;6.17;;;2.70;99.90;;;;;;4158550;28;20473;-79
2023/01/30 07:47:39;;;;;;;12.97;6.03;;;2.80;99.90;;;;;;4157806;28;20485;-78
2023/01/30 07:49:40;;;;;;;12.03;6.47;;;2.80;99.90;;;;;;4153711;28;20454;-79
2023/01/30 07:51:42;;;;;;;10.93;5.83;;;2.80;99.90;;;;;;4153173;28;20454;-79
2023/01/30 07:53:49;;;;;;;10.67;5.20;;;2.80;99.90;;;;;;4150875;28;20461;-79
2023/01/30 07:55:51;;;;;;;11.13;5.87;;;2.80;99.90;;;;;;4158457;28;20470;-79
2023/01/30 07:57:54;;;;;;;12.37;5.40;;;2.80;99.90;;;;;;4158343;28;20508;-79
2023/01/30 07:59:56;;;;;;;10.50;5.27;;;2.80;99.90;;;;;;4155716;28;20536;-79
2023/01/30 08:01:58;;;;;;;10.37;5.10;;;2.80;99.90;;;;;;4169695;28;20453;-78
2023/01/30 08:04:01;;;;;;;8.90;5.17;;;3.00;99.90;;;;;;4151353;28;20477;-79
2023/01/30 08:06:03;;;;;;;8.73;5.00;;;3.00;99.90;;;;;;4154043;28;20948;-79
2023/01/30 08:08:05;;;;;;;10.40;5.07;;;3.00;99.90;;;;;;4152028;28;20811;-78
2023/01/30 08:10:10;;;;;;;11.50;5.30;;;3.00;99.90;;;;;;4152229;28;20812;-79
2023/01/30 08:12:12;;;;;;;8.73;4.43;;;3.00;99.90;;;;;;4150076;28;20565;-78
2023/01/30 08:14:14;;;;;;;9.03;4.63;;;3.10;99.90;;;;;;4152044;28;20493;-77
2023/01/30 08:16:16;;;;;;;8.67;4.40;;;3.10;99.90;;;;;;4155208;28;20461;-78
2023/01/30 08:18:18;;;;;;;9.03;4.80;;;3.20;99.90;;;;;;4161466;28;20469;-77
2023/01/30 08:20:20;;;;;;;8.90;4.37;;;3.20;99.90;;;;;;4158414;28;20990;-78
2023/01/30 08:22:22;;;;;;;7.83;4.30;;;3.20;99.90;;;;;;4173313;28;20446;-78
2023/01/30 08:24:24;;;;;;;7.53;4.27;;;3.30;99.90;;;;;;4161264;28;20457;-78
2023/01/30 08:26:28;;;;;;;7.47;4.10;;;3.30;99.90;;;;;;4160095;28;20473;-78
2023/01/30 08:28:30;;;;;;;9.77;3.83;;;3.30;99.90;;;;;;4159037;28;20482;-79
2023/01/30 08:30:32;;;;;;;8.87;4.93;;;3.30;99.90;;;;;;4157796;28;21002;-78
2023/01/30 08:32:34;;;;;;;7.57;4.20;;;3.30;99.90;;;;;;4161443;28;20454;-79
2023/01/30 08:34:36;;;;;;;6.77;3.67;;;3.30;99.90;;;;;;4166871;28;20485;-79
2023/01/30 08:36:38;;;;;;;9.90;3.77;;;3.70;99.90;;;;;;4165158;28;20470;-79
2023/01/30 08:38:43;;;;;;;7.60;4.00;;;3.30;99.90;;;;;;4176508;28;21168;-80
2023/01/30 08:40:45;;;;;;;6.27;3.17;;;3.40;99.90;;;;;;4156632;28;20461;-80
2023/01/30 08:42:49;;;;;;;7.27;4.03;;;3.40;99.90;;;;;;4169762;28;20457;-78
2023/01/30 08:44:51;;;;;;;7.17;3.80;;;3.40;99.90;;;;;;4174982;28;20453;-79
2023/01/30 08:46:53;;;;;;;7.07;3.63;;;3.20;99.90;;;;;;4153095;28;20482;-80
2023/01/30 08:48:54;;;;;;;6.10;3.47;;;3.50;99.90;;;;;;4156187;28;20529;-80
2023/01/30 08:50:57;;;;;;;5.90;3.07;;;3.50;99.90;;;;;;4160040;28;20500;-79
2023/01/30 08:53:04;;;;;;;6.10;3.67;;;3.50;99.90;;;;;;4159127;28;20458;-81
2023/01/30 08:55:06;;;;;;;6.37;3.50;;;3.60;99.90;;;;;;4168742;28;20477;-78
2023/01/30 08:57:08;;;;;;;5.80;3.13;;;3.60;99.90;;;;;;4155342;28;20483;-79
2023/01/30 08:59:12;;;;;;;6.03;3.33;;;3.70;99.90;;;;;;4162175;28;20453;-79
2023/01/30 09:01:14;;;;;;;6.00;3.33;;;3.70;99.90;;;;;;4156786;28;20976;-79
2023/01/30 09:03:17;;;;;;;5.73;3.20;;;3.70;99.90;;;;;;4152730;28;20463;-78
2023/01/30 09:05:19;;;;;;;4.80;3.03;;;3.70;99.90;;;;;;4155068;28;20461;-80
2023/01/30 09:07:21;;;;;;;4.83;3.13;;;3.80;99.90;;;;;;4159914;28;20474;-79
2023/01/30 09:09:23;;;;;;;5.60;3.30;;;3.80;99.90;;;;;;4160493;28;20457;-78
2023/01/30 09:11:25;;;;;;;5.23;3.00;;;3.80;99.90;;;;;;4158576;28;20557;-79
2023/01/30 09:13:28;;;;;;;5.97;3.10;;;3.80;99.90;;;;;;4154167;28;20496;-78
2023/01/30 09:15:32;;;;;;;5.03;2.97;;;3.80;99.90;;;;;;4156976;28;20473;-79
2023/01/30 09:17:34;;;;;;;5.97;3.07;;;3.80;99.90;;;;;;4158177;28;20581;-80
2023/01/30 09:19:36;;;;;;;5.23;2.90;;;3.90;99.90;;;;;;4159167;28;20455;-79
2023/01/30 09:21:44;;;;;;;6.33;2.97;;;4.00;99.90;;;;;;4152889;28;20519;-79
2023/01/30 09:23:46;;;;;;;4.53;2.87;;;4.00;99.90;;;;;;4154831;28;20800;-79
2023/01/30 09:25:48;;;;;;;4.47;2.70;;;4.00;99.90;;;;;;4151264;28;20453;-77
2023/01/30 09:27:50;;;;;;;5.53;2.90;;;4.00;99.90;;;;;;4150662;28;20547;-77
2023/01/30 09:29:52;;;;;;;5.37;2.47;;;4.10;99.90;;;;;;4153552;28;20450;-81
2023/01/30 09:31:56;;;;;;;5.30;2.97;;;4.10;99.90;;;;;;4151010;28;21023;-81
2023/01/30 09:33:58;;;;;;;5.83;2.90;;;4.10;99.90;;;;;;4167602;28;20982;-80
2023/01/30 09:36:00;;;;;;;4.83;2.83;;;4.20;99.90;;;;;;4156645;28;21045;-81
2023/01/30 09:38:04;;;;;;;4.97;2.63;;;4.20;99.90;;;;;;4156910;28;20485;-78
2023/01/30 09:40:10;;;;;;;5.20;3.17;;;4.30;99.90;;;;;;4156973;28;20827;-80
2023/01/30 09:42:35;;;;;;;4.17;2.50;;;4.30;99.90;;;;;;4156531;28;20454;-78
2023/01/30 09:45:03;;;;;;;6.50;2.47;;;4.40;99.90;;;;;;4153430;28;20461;-80
2023/01/30 09:47:11;;;;;;;4.67;2.70;;;4.40;99.90;;;;;;4151463;28;20481;-81
2023/01/30 09:49:26;;;;;;;3.57;2.50;;;4.30;99.90;;;;;;4152117;28;21029;-79
2023/01/30 09:51:50;;;;;;;5.63;2.70;;;4.30;99.90;;;;;;4150581;28;20474;-78
2023/01/30 09:54:04;;;;;;;4.00;2.50;;;4.30;99.90;;;;;;4149020;28;20505;-79
2023/01/30 09:56:06;;;;;;;4.10;2.50;;;4.50;99.90;;;;;;4153905;28;20536;-78
2023/01/30 09:58:16;;;;;;;4.37;2.33;;;4.60;99.90;;;;;;4156298;28;20932;-79
2023/01/30 10:00:25;;;;;;;3.37;1.87;;;4.30;99.90;;;;;;4150212;28;20446;-78
2023/01/30 10:02:50;;;;;;;5.47;2.40;;;4.30;99.90;;;;;;4149986;28;20557;-79
2023/01/30 10:04:55;;;;;;;3.63;2.10;;;4.20;99.90;;;;;;4166016;28;20466;-80
2023/01/30 10:07:03;;;;;;;6.00;3.03;;;4.20;99.90;;;;;;4153659;28;20486;-80
2023/01/30 10:09:14;;;;;;;6.13;2.83;;;4.30;99.90;;;;;;4153571;28;20453;-77
2023/01/30 10:11:24;;;;;;;4.80;2.67;;;4.30;99.90;;;;;;4150039;28;20557;-78
2023/01/30 10:13:38;;;;;;;5.03;2.83;;;4.40;99.90;;;;;;4154680;28;20458;-79
2023/01/30 10:15:50;;;;;;;5.67;2.80;;;4.30;99.90;;;;;;4152179;28;21033;-78
2023/01/30 10:18:21;;;;;;;4.63;2.93;;;4.20;99.90;;;;;;4156027;28;20577;-79
2023/01/30 10:20:31;;;;;;;4.37;3.00;;;4.30;99.90;;;;;;4153897;28;20507;-80
2023/01/30 10:22:42;;;;;;;4.67;2.57;;;4.30;99.90;;;;;;4157561;28;20474;-78
2023/01/30 10:24:54;;;;;;;5.03;2.73;;;4.30;99.90;;;;;;4156173;28;20498;-80
2023/01/30 10:26:57;;;;;;;4.27;2.60;;;4.20;99.90;;;;;;4154548;28;20903;-80
2023/01/30 10:29:04;;;;;;;5.07;2.50;;;4.20;99.90;;;;;;4152867;28;20461;-79
2023/01/30 10:31:11;;;;;;;3.70;2.50;;;4.20;99.90;;;;;;4155777;28;20457;-78
2023/01/30 10:33:21;;;;;;;5.27;3.13;;;4.20;99.90;;;;;;4153474;28;20523;-80
2023/01/30 10:35:29;;;;;;;3.90;2.30;;;4.20;99.90;;;;;;4152851;28;20854;-80
2023/01/30 10:37:38;;;;;;;4.43;2.60;;;4.10;99.90;;;;;;4149792;28;20596;-79
2023/01/30 10:39:50;;;;;;;5.63;3.00;;;4.10;99.90;;;;;;4157725;28;20450;-79
2023/01/30 10:41:58;;;;;;;4.93;2.77;;;4.10;99.90;;;;;;4152092;28;20531;-79
2023/01/30 10:44:05;;;;;;;5.53;2.97;;;4.10;99.90;;;;;;4164313;28;22337;-81
2023/01/30 10:46:22;;;;;;;4.60;2.73;;;4.10;99.90;;;;;;4147430;28;20447;-80
2023/01/30 10:48:49;;;;;;;4.80;2.77;;;4.10;99.90;;;;;;4147292;28;20569;-79
2023/01/30 10:50:54;;;;;;;5.37;2.93;;;4.10;99.90;;;;;;4141549;28;20516;-81
2023/01/30 10:53:06;;;;;;;7.43;3.30;;;4.20;99.90;;;;;;4150916;28;20451;-80
2023/01/30 10:55:17;;;;;;;4.20;2.67;;;4.20;99.90;;;;;;4152178;28;20533;-78
2023/01/30 10:57:25;;;;;;;5.73;3.07;;;4.10;99.90;;;;;;4153952;28;20498;-80